Time;durP1;ratioP1;P1;durP2;ratioP2;P2;SDS_P1;SDS_P2;PMS_P1;PMS_P2;Temp;Humidity;BMP_temperature;BMP_pressure;BME280_temperature;BME280_humidity;BME280_pressure;Samples;Min_cycle;Max_cycle;Signal;HPM_P1;HPM_P2
2021/08/26 00:00:27;;;;;;;5.95;3.50;;;;;;;15.58;87.53;100246.69;4998763;28;20474;-67
2021/08/26 00:08:14;;;;;;;5.13;3.33;;;;;;;15.54;87.85;100235.34;4998501;28;20054;-69
2021/08/26 00:10:41;;;;;;;8.20;3.50;;;;;;;15.59;87.99;100233.09;4998455;28;20050;-68
2021/08/26 00:13:10;;;;;;;6.05;3.40;;;;;;;15.57;88.62;100228.81;4998401;28;20046;-69
2021/08/26 00:15:43;;;;;;;7.45;3.95;;;;;;;15.58;88.61;100234.09;4998264;28;20062;-68
2021/08/26 00:18:10;;;;;;;10.43;4.20;;;;;;;15.55;88.71;100230.78;5017885;28;20050;-67
2021/08/26 00:20:37;;;;;;;6.03;3.78;;;;;;;15.55;88.84;100225.41;5016731;28;20052;-67
2021/08/26 00:23:05;;;;;;;6.82;3.85;;;;;;;15.50;89.18;100217.72;5049041;28;20038;-68
2021/08/26 00:25:32;;;;;;;7.13;3.95;;;;;;;15.54;89.14;100212.94;5017273;28;20362;-67
2021/08/26 00:27:59;;;;;;;10.43;4.03;;;;;;;15.55;89.24;100215.53;5016144;28;20037;-68
2021/08/26 00:30:26;;;;;;;6.95;4.18;;;;;;;15.53;88.97;100214.75;5013107;28;20046;-67
2021/08/26 00:32:53;;;;;;;6.50;4.63;;;;;;;15.51;89.66;100224.81;4997954;28;20404;-69
2021/08/26 00:35:20;;;;;;;11.75;4.95;;;;;;;15.36;91.58;100224.19;4998053;28;20073;-69
2021/08/26 00:37:47;;;;;;;8.60;5.32;;;;;;;15.28;93.01;100214.06;4997944;28;20049;-67
2021/08/26 00:40:14;;;;;;;9.07;5.50;;;;;;;15.09;94.92;100213.84;4997981;28;20057;-67
2021/08/26 00:42:41;;;;;;;8.65;5.35;;;;;;;14.99;97.04;100217.22;4996703;28;20073;-69
2021/08/26 00:45:09;;;;;;;8.85;5.85;;;;;;;14.87;97.86;100200.25;4998038;28;20390;-67
2021/08/26 00:47:37;;;;;;;8.95;5.82;;;;;;;14.83;98.72;100196.13;4996861;28;20046;-68
2021/08/26 00:50:05;;;;;;;9.15;6.43;;;;;;;14.81;99.90;100211.47;4997853;28;20043;-67
2021/08/26 00:52:36;;;;;;;9.55;6.45;;;;;;;14.86;99.99;100197.72;4997707;28;20042;-67
2021/08/26 00:55:05;;;;;;;11.25;6.63;;;;;;;14.93;100.00;100204.31;4996654;28;20053;-69
2021/08/26 00:57:37;;;;;;;12.55;7.10;;;;;;;14.93;98.79;100205.16;4997653;28;20137;-68
2021/08/26 01:00:09;;;;;;;8.82;6.38;;;;;;;14.92;99.18;100203.44;4997556;28;20435;-67
2021/08/26 01:02:54;;;;;;;9.25;6.70;;;;;;;14.95;99.50;100202.34;4997433;28;20380;-68
2021/08/26 01:05:43;;;;;;;13.57;7.07;;;;;;;14.89;100.00;100190.25;4997401;28;20039;-66
2021/08/26 01:08:21;;;;;;;9.60;7.68;;;;;;;14.75;100.00;100175.22;4997334;28;20130;-67
2021/08/26 01:10:53;;;;;;;12.05;8.10;;;;;;;14.77;100.00;100172.41;4996005;28;20062;-68
2021/08/26 01:13:20;;;;;;;12.65;9.32;;;;;;;14.66;100.00;100159.78;4997057;28;20100;-68
2021/08/26 01:16:07;;;;;;;10.77;9.57;;;;;;;14.64;100.00;100167.09;4995901;28;20069;-69
2021/08/26 01:18:55;;;;;;;12.13;10.30;;;;;;;14.61;100.00;100161.97;5000358;28;20079;-68
2021/08/26 01:21:24;;;;;;;15.27;10.43;;;;;;;14.58;100.00;100157.69;5001628;28;20042;-67
2021/08/26 01:24:05;;;;;;;15.25;11.73;;;;;;;14.58;100.00;100141.56;5016585;28;20103;-68
2021/08/26 01:27:01;;;;;;;;;;;;;;;14.55;100.00;100139.16;5016918;28;20041;-68
2021/08/26 01:29:28;;;;;;;13.93;12.23;;;;;;;14.56;100.00;100137.31;5011931;28;19925;-67
2021/08/26 01:31:54;;;;;;;15.18;13.68;;;;;;;14.56;100.00;100140.00;5016722;28;20073;-67
2021/08/26 01:34:21;;;;;;;15.45;13.85;;;;;;;14.53;100.00;100139.25;5016243;28;20049;-68
2021/08/26 01:36:48;;;;;;;20.38;15.45;;;;;;;14.49;100.00;100137.78;5015818;28;20313;-66
2021/08/26 01:39:16;;;;;;;19.95;15.95;;;;;;;14.53;100.00;100138.41;5016412;28;20092;-69
2021/08/26 01:41:48;;;;;;;19.90;16.17;;;;;;;14.48;100.00;100128.00;5016494;28;20057;-69
2021/08/26 01:44:21;;;;;;;21.77;16.65;;;;;;;14.57;100.00;100136.31;5015845;28;20103;-67
2021/08/26 01:46:48;;;;;;;21.25;16.65;;;;;;;14.54;100.00;100134.72;5015822;28;20065;-68
2021/08/26 01:49:16;;;;;;;25.45;17.67;;;;;;;14.59;100.00;100137.06;5014805;28;20100;-66
2021/08/26 01:51:42;;;;;;;19.10;16.92;;;;;;;14.55;100.00;100132.91;5015891;28;20050;-67
2021/08/26 01:54:09;;;;;;;19.17;17.10;;;;;;;14.50;100.00;100117.16;5014667;28;20424;-68
2021/08/26 01:56:37;;;;;;;19.48;17.02;;;;;;;14.58;100.00;100122.78;5015459;28;20038;-67
2021/08/26 01:59:05;;;;;;;21.33;18.50;;;;;;;14.57;100.00;100118.38;4982385;28;20116;-68
2021/08/26 02:01:32;;;;;;;25.65;19.60;;;;;;;14.58;100.00;100113.84;5014622;28;20050;-68
2021/08/26 02:04:01;;;;;;;21.42;17.98;;;;;;;14.64;100.00;100113.38;5015593;28;20133;-68
2021/08/26 02:06:27;;;;;;;21.58;18.25;;;;;;;14.62;100.00;100104.59;5015777;28;20088;-69
2021/08/26 02:08:54;;;;;;;22.02;18.38;;;;;;;14.65;100.00;100109.72;5015660;28;20038;-67
2021/08/26 02:11:21;;;;;;;22.92;19.17;;;;;;;14.63;100.00;100098.25;5014417;28;20054;-68
2021/08/26 02:13:48;;;;;;;24.92;19.52;;;;;;;14.64;100.00;100098.13;5014613;28;20092;-69
2021/08/26 02:16:15;;;;;;;23.15;19.00;;;;;;;14.62;100.00;100099.22;5015717;28;20038;-68
2021/08/26 02:18:43;;;;;;;26.48;19.08;;;;;;;14.62;100.00;100089.34;5000229;28;20050;-68
2021/08/26 02:21:10;;;;;;;26.05;19.48;;;;;;;14.67;100.00;100086.28;4999338;28;20041;-68
2021/08/26 02:23:37;;;;;;;25.63;20.30;;;;;;;14.68;100.00;100093.38;5015307;28;20125;-68
2021/08/26 02:26:04;;;;;;;22.05;18.17;;;;;;;14.55;100.00;100071.13;5013954;28;20105;-69
2021/08/26 02:28:31;;;;;;;22.85;18.90;;;;;;;14.70;100.00;100088.72;5014199;28;20343;-69
2021/08/26 02:30:57;;;;;;;20.77;18.50;;;;;;;14.73;100.00;100091.16;5015050;28;20050;-67
2021/08/26 02:33:24;;;;;;;21.88;19.10;;;;;;;14.66;100.00;100089.94;5015127;28;20053;-67
2021/08/26 02:35:51;;;;;;;25.60;18.27;;;;;;;14.57;100.00;100077.22;4997761;28;20065;-69
2021/08/26 02:38:18;;;;;;;21.38;18.70;;;;;;;14.48;100.00;100071.63;5015092;28;20458;-67
2021/08/26 02:40:45;;;;;;;23.73;19.55;;;;;;;14.55;100.00;100089.94;5015266;28;20062;-69
2021/08/26 02:43:12;;;;;;;21.85;18.90;;;;;;;14.56;100.00;100080.91;5015032;28;20121;-67
2021/08/26 02:45:40;;;;;;;20.75;17.85;;;;;;;14.48;100.00;100073.44;5014913;28;20038;-69
2021/08/26 02:48:07;;;;;;;20.80;16.70;;;;;;;14.53;100.00;100088.22;5013151;28;20435;-69
2021/08/26 02:50:34;;;;;;;21.27;18.15;;;;;;;14.49;100.00;100100.19;5013821;28;20050;-67
2021/08/26 02:53:01;;;;;;;20.85;17.38;;;;;;;14.48;100.00;100094.91;5015005;28;20069;-69
2021/08/26 02:55:28;;;;;;;21.40;18.08;;;;;;;14.48;100.00;100087.72;5014812;28;20052;-68
2021/08/26 02:57:55;;;;;;;22.50;18.40;;;;;;;14.52;100.00;100089.22;5030216;28;20054;-69
2021/08/26 03:00:22;;;;;;;16.17;13.32;;;;;;;14.51;100.00;100086.63;5014841;28;20037;-69
2021/08/26 03:02:49;;;;;;;16.45;13.00;;;;;;;14.52;100.00;100091.91;5014775;28;20042;-69
2021/08/26 03:05:16;;;;;;;16.60;14.32;;;;;;;14.47;100.00;100101.28;5014725;28;20140;-68
2021/08/26 03:07:43;;;;;;;16.85;13.73;;;;;;;14.42;100.00;100088.22;5013735;28;20042;-68
2021/08/26 03:10:10;;;;;;;16.55;13.38;;;;;;;14.47;100.00;100091.41;5014705;28;20507;-68
2021/08/26 03:12:37;;;;;;;15.13;13.35;;;;;;;14.44;100.00;100088.94;5013385;28;20062;-67
2021/08/26 03:15:04;;;;;;;19.92;14.13;;;;;;;14.49;100.00;100084.06;5014735;28;20054;-67
2021/08/26 03:17:31;;;;;;;19.73;13.63;;;;;;;14.49;100.00;100089.44;5014900;28;20351;-68
2021/08/26 03:19:58;;;;;;;15.80;12.38;;;;;;;14.46;100.00;100081.63;5029762;28;20046;-67
2021/08/26 03:22:25;;;;;;;16.42;12.23;;;;;;;14.49;100.00;100085.91;5032911;28;20046;-68
2021/08/26 03:24:51;;;;;;;14.70;12.23;;;;;;;14.54;100.00;100094.44;4994997;28;20049;-68
2021/08/26 03:27:18;;;;;;;14.43;11.93;;;;;;;14.51;100.00;100083.97;4993631;28;20046;-69
2021/08/26 03:29:46;;;;;;;14.02;10.85;;;;;;;14.58;100.00;100095.06;5026826;28;20355;-68
2021/08/26 03:32:13;;;;;;;12.00;9.75;;;;;;;14.50;100.00;100091.16;4995035;28;20105;-68
2021/08/26 03:34:39;;;;;;;13.27;10.75;;;;;;;14.45;100.00;100079.06;4995046;28;20046;-69
2021/08/26 03:37:06;;;;;;;12.15;10.25;;;;;;;14.55;100.00;100087.25;4994829;28;20058;-67
2021/08/26 03:39:33;;;;;;;11.93;9.38;;;;;;;14.55;100.00;100090.81;5010377;28;20046;-68
2021/08/26 03:42:00;;;;;;;10.02;8.48;;;;;;;14.52;100.00;100083.84;4995049;28;20188;-68
2021/08/26 03:44:26;;;;;;;11.35;8.38;;;;;;;14.57;100.00;100080.78;5026614;28;20113;-69
2021/08/26 03:46:53;;;;;;;10.32;8.73;;;;;;;14.49;100.00;100070.66;5009920;28;20069;-67
2021/08/26 03:49:20;;;;;;;13.43;7.93;;;;;;;14.57;100.00;100085.28;5013247;28;20049;-67
2021/08/26 03:51:47;;;;;;;10.88;8.98;;;;;;;14.57;100.00;100083.47;5013451;28;20124;-68
2021/08/26 03:54:14;;;;;;;11.23;9.00;;;;;;;14.55;100.00;100076.50;5007797;28;20038;-69
2021/08/26 03:56:41;;;;;;;13.90;8.63;;;;;;;14.56;100.00;100091.66;5013720;28;20042;-68
2021/08/26 03:59:07;;;;;;;9.65;7.40;;;;;;;14.51;100.00;100087.47;5015895;28;20046;-68
2021/08/26 04:01:34;;;;;;;16.05;8.02;;;;;;;14.52;100.00;100086.53;5017286;28;20045;-68
2021/08/26 04:04:01;;;;;;;11.65;7.47;;;;;;;14.48;100.00;100089.56;5017835;28;20511;-68
2021/08/26 04:06:28;;;;;;;9.20;6.63;;;;;;;14.52;100.00;100088.34;5017403;28;20042;-67
2021/08/26 04:08:55;;;;;;;8.45;6.22;;;;;;;14.45;100.00;100085.31;5032927;28;20140;-69
2021/08/26 04:11:21;;;;;;;6.78;5.60;;;;;;;14.46;100.00;100094.19;5017414;28;20062;-68
2021/08/26 04:13:48;;;;;;;8.02;5.80;;;;;;;14.38;100.00;100081.38;5017658;28;20351;-68
2021/08/26 04:16:15;;;;;;;9.40;5.72;;;;;;;14.35;100.00;100076.25;5016680;28;20372;-68
2021/08/26 04:18:42;;;;;;;9.25;5.55;;;;;;;14.38;100.00;100076.00;5008805;28;20084;-69
2021/08/26 04:21:09;;;;;;;8.43;5.47;;;;;;;14.37;100.00;100077.84;5017505;28;20045;-69
2021/08/26 04:23:35;;;;;;;9.52;5.38;;;;;;;14.31;100.00;100074.78;5017469;28;20443;-68
2021/08/26 04:26:02;;;;;;;9.27;5.15;;;;;;;14.36;100.00;100077.94;5017702;28;20107;-68
2021/08/26 04:28:29;;;;;;;7.45;5.32;;;;;;;14.34;100.00;100079.91;5017639;28;20497;-73
2021/08/26 04:30:56;;;;;;;9.23;5.43;;;;;;;14.32;100.00;100069.28;5016016;28;20041;-67
2021/08/26 04:33:23;;;;;;;10.40;4.97;;;;;;;14.32;100.00;100077.34;5015648;28;20054;-68
2021/08/26 04:35:50;;;;;;;9.45;4.93;;;;;;;14.38;100.00;100074.19;5017155;28;20162;-69
2021/08/26 04:38:17;;;;;;;11.07;5.68;;;;;;;14.37;100.00;100079.66;5017157;28;20042;-67
2021/08/26 04:40:43;;;;;;;8.98;5.68;;;;;;;14.34;100.00;100075.38;5017277;28;20048;-69
2021/08/26 04:43:10;;;;;;;11.43;5.43;;;;;;;14.37;100.00;100085.03;5017141;28;20073;-69
2021/08/26 04:45:37;;;;;;;9.25;4.97;;;;;;;14.35;100.00;100076.25;5016883;28;20049;-69
2021/08/26 04:48:04;;;;;;;7.45;4.80;;;;;;;14.22;100.00;100060.25;5016780;28;20042;-70
2021/08/26 04:50:31;;;;;;;7.72;5.28;;;;;;;14.31;100.00;100074.78;5032099;28;20103;-74
2021/08/26 04:52:58;;;;;;;9.73;4.85;;;;;;;14.25;100.00;100086.84;5016737;28;20433;-68
2021/08/26 04:55:24;;;;;;;11.05;4.95;;;;;;;14.21;100.00;100078.19;5028042;28;20076;-68
2021/08/26 04:57:51;;;;;;;10.27;5.15;;;;;;;14.20;100.00;100084.53;5004083;28;20042;-68
2021/08/26 05:00:18;;;;;;;7.78;4.88;;;;;;;14.17;100.00;100082.06;5014102;28;20041;-68
2021/08/26 05:02:48;;;;;;;6.47;4.47;;;;;;;14.16;100.00;100076.84;5013082;28;20057;-68
2021/08/26 05:05:15;;;;;;;10.88;4.90;;;;;;;14.15;100.00;100078.66;5030201;28;20140;-69
2021/08/26 05:07:42;;;;;;;8.43;4.13;;;;;;;14.16;100.00;100072.31;5014845;28;20121;-69
2021/08/26 05:10:09;;;;;;;9.82;4.40;;;;;;;14.22;100.00;100076.38;5013756;28;20594;-69
2021/08/26 05:12:35;;;;;;;13.77;4.53;;;;;;;14.28;100.00;100083.06;5048388;28;20049;-69
2021/08/26 05:15:03;;;;;;;10.48;3.72;;;;;;;14.27;100.00;100082.22;5016486;28;20339;-69
2021/08/26 05:17:29;;;;;;;6.07;3.78;;;;;;;14.17;100.00;100073.19;5016373;28;20138;-69
2021/08/26 05:19:56;;;;;;;8.65;4.30;;;;;;;14.16;100.00;100071.47;5048439;28;20046;-69
2021/08/26 05:22:23;;;;;;;8.98;3.90;;;;;;;14.20;100.00;100079.16;5003404;28;20116;-69
2021/08/26 05:24:51;;;;;;;8.77;3.92;;;;;;;14.21;100.00;100078.19;4996709;28;20049;-69
2021/08/26 05:27:18;;;;;;;8.45;3.67;;;;;;;14.18;100.00;100065.00;4996521;28;20432;-69
2021/08/26 05:29:45;;;;;;;10.65;3.78;;;;;;;14.30;100.00;100076.63;4996683;28;20049;-69
2021/08/26 05:32:12;;;;;;;7.78;3.70;;;;;;;14.28;100.00;100077.72;5007426;28;20073;-69
2021/08/26 05:34:41;;;;;;;9.52;3.55;;;;;;;14.32;100.00;100079.19;5015096;28;20088;-68
2021/08/26 05:37:09;;;;;;;11.30;4.20;;;;;;;14.28;100.00;100080.41;5030897;28;20382;-69
2021/08/26 05:39:36;;;;;;;7.35;3.40;;;;;;;14.30;100.00;100086.50;5015266;28;20065;-68
2021/08/26 05:42:03;;;;;;;6.65;3.65;;;;;;;14.25;100.00;100086.84;5015696;28;20103;-68
2021/08/26 05:44:30;;;;;;;11.73;3.97;;;;;;;14.20;100.00;100083.66;5014317;28;20042;-68
2021/08/26 05:46:56;;;;;;;9.15;3.83;;;;;;;14.25;100.00;100081.47;5014393;28;20037;-69
2021/08/26 05:49:23;;;;;;;11.10;3.95;;;;;;;14.28;100.00;100081.25;5030047;28;20454;-72
2021/08/26 05:51:50;;;;;;;8.23;3.95;;;;;;;14.24;100.00;100080.66;5014431;28;20069;-70
2021/08/26 05:54:16;;;;;;;13.50;4.45;;;;;;;14.04;100.00;100035.69;5015480;28;20045;-70
2021/08/26 05:56:43;;;;;;;12.88;3.90;;;;;;;14.30;100.00;100079.31;5011629;28;20085;-70
2021/08/26 05:59:10;;;;;;;11.50;4.75;;;;;;;14.27;100.00;100082.22;5010865;28;20045;-70
2021/08/26 06:01:37;;;;;;;11.68;3.95;;;;;;;14.31;100.00;100064.91;4997709;28;20038;-70
2021/08/26 06:04:04;;;;;;;10.82;3.05;;;;;;;14.32;100.00;100076.50;5012184;28;20038;-70
2021/08/26 06:06:31;;;;;;;13.93;3.50;;;;;;;14.26;100.00;100072.44;5013924;28;20042;-69
2021/08/26 06:08:57;;;;;;;12.85;3.65;;;;;;;14.13;100.00;100057.28;5005962;28;20046;-72
2021/08/26 06:11:24;;;;;;;12.45;3.78;;;;;;;14.19;100.00;100065.84;5013982;28;20058;-70
2021/08/26 06:13:51;;;;;;;13.75;3.88;;;;;;;14.15;100.00;100059.03;5014686;28;20432;-70
2021/08/26 06:16:17;;;;;;;12.52;3.08;;;;;;;14.22;100.00;100071.84;5015228;28;20053;-71
2021/08/26 06:18:44;;;;;;;20.65;3.80;;;;;;;14.28;100.00;100080.41;5014994;28;20100;-73
2021/08/26 06:21:14;;;;;;;10.32;3.20;;;;;;;14.21;100.00;100062.06;5010379;28;20109;-73
2021/08/26 06:23:41;;;;;;;12.82;3.78;;;;;;;14.28;100.00;100069.66;4996503;28;20125;-72
2021/08/26 06:26:07;;;;;;;12.80;3.25;;;;;;;14.29;100.00;100074.91;4999433;28;20120;-73
2021/08/26 06:28:34;;;;;;;14.75;3.75;;;;;;;14.34;100.00;100090.66;5025240;28;20038;-72
2021/08/26 06:31:01;;;;;;;12.05;3.25;;;;;;;14.37;100.00;100082.34;5018202;28;20072;-71
2021/08/26 06:33:28;;;;;;;11.18;3.28;;;;;;;14.32;100.00;100084.56;5007517;28;20078;-72
2021/08/26 06:35:54;;;;;;;13.30;3.08;;;;;;;14.37;100.00;100087.72;5001336;28;20138;-72
2021/08/26 06:38:22;;;;;;;12.27;3.05;;;;;;;14.46;99.88;100097.75;4991544;28;20053;-71
2021/08/26 06:40:49;;;;;;;12.32;3.50;;;;;;;14.39;100.00;100092.00;5010078;28;20042;-71
2021/08/26 06:43:15;;;;;;;14.85;3.83;;;;;;;14.20;100.00;100062.19;5014280;28;20046;-73
2021/08/26 06:45:42;;;;;;;9.15;3.22;;;;;;;14.53;100.00;100103.47;5006580;28;20045;-73
2021/08/26 06:48:09;;;;;;;17.23;3.70;;;;;;;14.51;100.00;100100.91;5013023;28;20072;-72
2021/08/26 06:50:36;;;;;;;14.00;3.22;;;;;;;14.50;100.00;100104.56;5004154;28;20067;-71
2021/08/26 06:53:03;;;;;;;9.93;3.33;;;;;;;14.44;100.00;100093.47;5000852;28;20042;-72
2021/08/26 06:55:30;;;;;;;16.33;3.75;;;;;;;14.52;99.61;100107.16;4994733;28;20046;-70
2021/08/26 06:57:57;;;;;;;12.50;3.35;;;;;;;14.51;100.00;100106.28;5009728;28;20116;-71
2021/08/26 07:00:23;;;;;;;15.75;3.33;;;;;;;14.64;100.00;100108.88;5009746;28;20054;-71
2021/08/26 07:02:51;;;;;;;11.52;3.65;;;;;;;14.65;100.00;100102.50;5009950;28;20113;-70
2021/08/26 07:05:18;;;;;;;13.80;4.00;;;;;;;14.67;96.54;100110.47;5015734;28;20050;-71
2021/08/26 07:07:45;;;;;;;14.77;3.72;;;;;;;14.67;99.02;100105.09;4999720;28;20095;-70
2021/08/26 07:10:12;;;;;;;10.57;3.40;;;;;;;14.65;96.55;100107.03;5017865;28;20045;-69
2021/08/26 07:12:39;;;;;;;15.18;3.65;;;;;;;14.62;97.38;100116.19;5004389;28;20141;-71
2021/08/26 07:15:06;;;;;;;11.52;2.80;;;;;;;14.58;99.20;100109.34;5006586;28;20050;-70
2021/08/26 07:17:32;;;;;;;8.88;3.42;;;;;;;14.66;95.05;100103.38;5013110;28;20050;-70
2021/08/26 07:19:59;;;;;;;9.98;2.80;;;;;;;14.60;94.60;100114.59;5014376;28;20050;-71
2021/08/26 07:22:26;;;;;;;13.25;3.58;;;;;;;14.66;97.66;100123.03;5014152;28;20315;-72
2021/08/26 07:24:53;;;;;;;15.43;3.30;;;;;;;14.73;94.72;100126.09;5004362;28;20046;-72
2021/08/26 07:27:19;;;;;;;11.45;2.78;;;;;;;14.65;95.80;100121.31;5014530;28;20386;-72
2021/08/26 07:29:47;;;;;;;14.35;3.25;;;;;;;14.66;94.37;100123.03;5014533;28;20391;-69
2021/08/26 07:32:16;;;;;;;14.05;3.15;;;;;;;14.70;94.16;100123.63;5014690;28;20050;-72
2021/08/26 07:34:43;;;;;;;13.35;3.25;;;;;;;14.68;94.24;100109.47;5009762;28;20088;-72
2021/08/26 07:37:10;;;;;;;16.98;3.50;;;;;;;14.70;95.03;100107.50;5020364;28;20037;-72
2021/08/26 07:39:37;;;;;;;14.93;3.75;;;;;;;14.84;96.42;100127.09;5016045;28;20069;-71
2021/08/26 07:42:05;;;;;;;9.85;2.80;;;;;;;14.92;92.29;100116.56;5017719;28;20046;-67
2021/08/26 07:44:32;;;;;;;16.15;3.08;;;;;;;15.03;90.19;100123.81;5017877;28;20057;-68
2021/08/26 07:46:59;;;;;;;18.40;3.25;;;;;;;15.05;90.06;100121.84;5016721;28;20054;-70
2021/08/26 07:49:26;;;;;;;18.45;3.58;;;;;;;14.98;88.83;100113.41;5016498;28;20149;-70
2021/08/26 07:51:52;;;;;;;10.05;2.88;;;;;;;15.04;92.75;100114.75;5017539;28;20046;-72
2021/08/26 07:54:19;;;;;;;14.38;2.85;;;;;;;15.20;89.22;100119.75;5017667;28;20285;-71
2021/08/26 07:56:46;;;;;;;18.35;3.33;;;;;;;15.23;87.98;100114.09;5016385;28;20045;-72
2021/08/26 07:59:13;;;;;;;9.40;2.70;;;;;;;15.27;90.17;100110.19;5010681;28;20041;-72
2021/08/26 08:01:39;;;;;;;11.38;2.88;;;;;;;15.30;88.41;100112.63;5011031;28;20060;-74
2021/08/26 08:04:06;;;;;;;17.15;3.28;;;;;;;15.19;86.87;100094.69;5017519;28;20125;-74
2021/08/26 08:06:33;;;;;;;15.00;3.22;;;;;;;15.38;90.00;100111.13;5017241;28;20324;-73
2021/08/26 08:09:00;;;;;;;12.05;2.92;;;;;;;15.46;85.96;100114.91;5016447;28;20439;-73
2021/08/26 08:11:27;;;;;;;13.23;3.10;;;;;;;15.41;86.09;100102.84;5016065;28;20057;-73
2021/08/26 08:14:02;;;;;;;13.13;3.45;;;;;;;15.60;85.86;100112.91;5016115;28;20050;-73
2021/08/26 08:16:30;;;;;;;13.82;2.88;;;;;;;15.55;85.31;100105.22;5017114;28;20048;-74
2021/08/26 08:18:58;;;;;;;12.38;2.78;;;;;;;15.63;84.74;100109.13;5010127;28;20038;-71
2021/08/26 08:21:24;;;;;;;19.05;2.67;;;;;;;15.64;84.26;100106.31;5016915;28;20453;-73
2021/08/26 08:23:51;;;;;;;10.80;2.80;;;;;;;15.67;83.08;100105.16;5010378;28;20045;-73
2021/08/26 08:26:18;;;;;;;10.25;2.50;;;;;;;15.62;82.70;100092.09;5015663;28;20108;-72
2021/08/26 08:28:45;;;;;;;10.10;2.40;;;;;;;15.77;82.86;100106.13;5008606;28;20030;-72
2021/08/26 08:31:11;;;;;;;10.95;3.10;;;;;;;15.79;79.42;100108.69;5016738;28;20054;-73
2021/08/26 08:33:38;;;;;;;16.67;3.25;;;;;;;15.94;81.01;100107.41;5015948;28;20107;-72
2021/08/26 08:36:06;;;;;;;14.82;3.45;;;;;;;15.98;82.97;100098.09;5043024;28;20057;-73
2021/08/26 08:38:33;;;;;;;16.05;2.85;;;;;;;16.13;80.08;100100.47;5017137;28;20049;-73
2021/08/26 08:41:00;;;;;;;9.77;2.55;;;;;;;16.15;81.95;100099.34;5016916;28;20049;-72
2021/08/26 08:43:27;;;;;;;8.75;2.10;;;;;;;16.37;77.71;100096.63;5016989;28;20050;-73
2021/08/26 08:45:55;;;;;;;10.35;2.35;;;;;;;16.42;77.53;100095.28;5012049;28;20416;-71
2021/08/26 08:48:25;;;;;;;10.45;2.47;;;;;;;16.33;77.26;100084.44;5010915;28;20475;-72
2021/08/26 08:50:52;;;;;;;12.53;2.50;;;;;;;16.41;74.64;100082.75;5016990;28;20459;-73
2021/08/26 08:53:20;;;;;;;7.80;2.50;;;;;;;16.25;76.48;100077.00;5017025;28;20119;-74
2021/08/26 08:55:47;;;;;;;8.98;2.53;;;;;;;16.28;78.98;100090.19;5015381;28;20077;-71
2021/08/26 08:58:14;;;;;;;16.23;2.72;;;;;;;16.23;76.62;100084.38;5015443;28;20056;-73
2021/08/26 09:00:41;;;;;;;9.73;2.20;;;;;;;16.41;76.10;100087.31;5016951;28;20463;-72
2021/08/26 09:03:08;;;;;;;11.75;2.05;;;;;;;16.45;75.63;100083.34;4999372;28;20049;-73
2021/08/26 09:05:56;;;;;;;7.85;1.95;;;;;;;16.48;73.98;100085.78;5014798;28;20152;-73
2021/08/26 09:08:24;;;;;;;10.07;2.03;;;;;;;16.40;73.90;100051.44;5048066;28;20367;-74
2021/08/26 09:10:53;;;;;;;11.15;2.17;;;;;;;16.64;72.04;100085.31;5008993;28;20050;-72
2021/08/26 09:13:33;;;;;;;9.52;2.00;;;;;;;16.78;73.20;100083.22;5048107;28;20057;-74
2021/08/26 09:16:01;;;;;;;9.57;2.72;;;;;;;16.83;74.45;100059.38;5015049;28;20143;-74
2021/08/26 09:18:29;;;;;;;11.05;2.47;;;;;;;16.95;69.99;100079.84;5016217;28;20052;-73
2021/08/26 09:20:57;;;;;;;10.85;2.88;;;;;;;16.90;71.41;100076.75;5012024;28;20037;-71
2021/08/26 09:23:27;;;;;;;11.40;2.65;;;;;;;16.73;73.80;100074.69;5010378;28;20435;-72
2021/08/26 09:26:13;;;;;;;12.60;2.78;;;;;;;16.59;74.87;100081.28;5015073;28;20049;-74
2021/08/26 09:28:40;;;;;;;11.43;2.28;;;;;;;16.36;77.36;100066.16;5015910;28;20680;-73
2021/08/26 09:31:18;;;;;;;15.45;2.35;;;;;;;16.16;81.11;100084.03;5015531;28;20132;-71
2021/08/26 09:33:47;;;;;;;12.15;2.60;;;;;;;15.99;78.36;100072.03;5047443;28;20042;-72
2021/08/26 09:36:18;;;;;;;9.18;2.30;;;;;;;15.90;77.70;100084.38;5030811;28;20042;-72
2021/08/26 09:38:53;;;;;;;13.07;2.97;;;;;;;15.87;80.15;100082.81;5015902;28;20053;-71
2021/08/26 09:41:43;;;;;;;12.40;3.05;;;;;;;16.10;77.64;100074.66;5015618;28;20046;-71
2021/08/26 09:44:18;;;;;;;12.73;2.80;;;;;;;16.27;77.87;100075.91;5015579;28;20129;-72
2021/08/26 09:46:49;;;;;;;10.95;2.55;;;;;;;16.46;75.51;100079.69;5015597;28;20049;-71
2021/08/26 09:49:21;;;;;;;15.13;2.58;;;;;;;16.40;75.35;100080.22;5015554;28;20381;-72
2021/08/26 09:52:07;;;;;;;10.27;2.22;;;;;;;16.23;77.32;100085.22;4997772;28;20054;-72
2021/08/26 09:54:49;;;;;;;4.53;1.90;;;;;;;16.04;78.13;100094.03;5013951;28;20390;-72
2021/08/26 09:57:27;;;;;;;12.82;2.40;;;;;;;15.78;77.14;100097.06;5014948;28;20037;-72
2021/08/26 09:59:56;;;;;;;10.55;2.88;;;;;;;15.80;78.31;100095.09;4999675;28;20379;-71
2021/08/26 10:02:25;;;;;;;10.02;2.33;;;;;;;15.99;78.25;100096.25;5008419;28;20046;-73
2021/08/26 10:04:54;;;;;;;14.82;2.60;;;;;;;16.23;77.93;100092.47;4999366;28;20077;-70
2021/08/26 10:07:23;;;;;;;9.38;2.30;;;;;;;16.47;77.21;100086.78;5006473;28;20046;-72
2021/08/26 10:09:50;;;;;;;14.23;2.42;;;;;;;16.72;75.49;100094.53;4978794;28;20324;-72
2021/08/26 10:12:17;;;;;;;11.80;2.60;;;;;;;16.89;72.84;100077.72;5013979;28;20057;-76
2021/08/26 10:14:47;;;;;;;11.63;2.47;;;;;;;17.15;73.71;100090.72;5016304;28;20325;-70
2021/08/26 10:17:16;;;;;;;10.23;2.55;;;;;;;17.30;73.57;100090.34;5009354;28;20034;-72
2021/08/26 10:19:43;;;;;;;10.55;2.80;;;;;;;17.20;73.26;100083.09;5001009;28;20053;-70
2021/08/26 10:22:14;;;;;;;9.10;2.50;;;;;;;17.12;74.46;100085.63;5014217;28;20053;-69
2021/08/26 10:24:43;;;;;;;10.10;2.20;;;;;;;16.87;72.44;100081.53;5013261;28;20100;-69
2021/08/26 10:27:31;;;;;;;8.50;2.00;;;;;;;16.68;73.32;100091.28;4999179;28;20054;-70
2021/08/26 10:29:58;;;;;;;12.43;2.25;;;;;;;16.50;76.13;100077.59;5001214;28;20042;-69
2021/08/26 10:32:25;;;;;;;8.00;2.60;;;;;;;16.64;73.92;100093.38;5001135;28;20104;-69
2021/08/26 10:35:09;;;;;;;12.32;2.63;;;;;;;16.55;73.98;100088.78;4997185;28;20042;-70
2021/08/26 10:37:44;;;;;;;8.98;1.98;;;;;;;16.55;74.61;100078.00;4999499;28;20072;-69
2021/08/26 10:40:31;;;;;;;10.40;2.85;;;;;;;16.66;76.52;100091.41;4997998;28;20046;-70
2021/08/26 10:42:58;;;;;;;9.50;2.08;;;;;;;16.84;75.18;100082.69;5003518;28;20429;-71
2021/08/26 10:45:29;;;;;;;7.45;1.92;;;;;;;16.96;76.02;100081.56;4999100;28;20042;-71
2021/08/26 10:48:02;;;;;;;;;;;;;;;17.04;75.22;100082.75;5009694;28;20114;-72
2021/08/26 10:50:36;;;;;;;9.95;2.45;;;;;;;17.17;75.76;100082.50;5042269;28;20011;-71
2021/08/26 10:53:07;;;;;;;12.52;2.78;;;;;;;17.32;74.29;100080.28;5013830;28;20041;-71
2021/08/26 10:55:34;;;;;;;;;;;;;;;17.44;74.18;100095.31;5007961;28;20129;-70
2021/08/26 10:58:16;;;;;;;9.35;2.88;;;;;;;17.44;72.31;100083.69;5005321;28;19996;-71
2021/08/26 11:00:44;;;;;;;14.27;2.90;;;;;;;17.37;74.02;100091.47;4995987;28;20092;-71
2021/08/26 11:03:34;;;;;;;10.85;2.35;;;;;;;17.18;73.58;100093.16;4999063;28;20450;-70
2021/08/26 11:06:24;;;;;;;8.43;2.35;;;;;;;16.83;76.21;100100.69;4995211;28;20034;-71
2021/08/26 11:09:18;;;;;;;8.13;2.35;;;;;;;16.41;79.92;100093.53;5010267;28;20041;-70
2021/08/26 11:11:47;;;;;;;10.73;2.58;;;;;;;16.30;80.39;100101.72;4974098;28;1161876;-71
2021/08/26 11:14:19;;;;;;;13.10;2.92;;;;;;;16.33;80.47;100098.75;5016314;28;20038;-70
2021/08/26 11:17:04;;;;;;;8.32;2.50;;;;;;;16.41;79.46;100103.47;5015631;28;20038;-70
2021/08/26 11:19:38;;;;;;;10.32;2.50;;;;;;;16.45;82.38;100094.13;5015951;28;20065;-69
2021/08/26 11:22:08;;;;;;;15.25;2.70;;;;;;;16.58;80.89;100099.31;4997701;28;20046;-72
2021/08/26 11:24:36;;;;;;;14.60;3.30;;;;;;;16.72;79.15;100106.16;5013912;28;20058;-72
2021/08/26 11:27:15;;;;;;;9.85;2.47;;;;;;;16.77;79.29;100092.31;5009887;28;20044;-72